Time;durP1;ratioP1;P1;durP2;ratioP2;P2;SDS_P1;SDS_P2;PMS_P1;PMS_P2;Temp;Humidity;BMP_temperature;BMP_pressure;BME280_temperature;BME280_humidity;BME280_pressure;Samples;Min_cycle;Max_cycle;Signal;HPM_P1;HPM_P2
2023/08/26 00:00:33;;;;;;;1999.90;999.90;;;17.70;99.90;;;;;;5092664;28;20026;-69
2023/08/26 00:02:59;;;;;;;1999.90;999.90;;;17.80;99.90;;;;;;5089708;28;20506;-69
2023/08/26 00:05:24;;;;;;;1999.90;999.90;;;17.80;99.90;;;;;;5088191;28;20532;-69
2023/08/26 00:07:50;;;;;;;1999.90;999.90;;;17.80;99.90;;;;;;5090394;28;20170;-73
2023/08/26 00:10:15;;;;;;;1999.90;999.90;;;17.80;99.90;;;;;;5089330;28;20025;-73
2023/08/26 00:12:41;;;;;;;1999.90;999.90;;;17.80;99.90;;;;;;5072437;28;20021;-69
2023/08/26 00:15:07;;;;;;;1999.90;999.90;;;17.70;99.90;;;;;;5072600;28;20102;-73
2023/08/26 00:17:33;;;;;;;1999.90;999.90;;;17.60;99.90;;;;;;5073084;28;20410;-73
2023/08/26 00:19:59;;;;;;;1999.90;999.90;;;17.60;99.90;;;;;;5081000;28;20028;-73
2023/08/26 00:22:25;;;;;;;1999.90;999.90;;;17.50;99.90;;;;;;5076186;28;20024;-73
2023/08/26 00:24:51;;;;;;;1999.90;999.90;;;17.50;99.90;;;;;;5092711;28;20030;-73
2023/08/26 00:27:16;;;;;;;1999.90;999.90;;;17.50;99.90;;;;;;5090595;28;20021;-70
2023/08/26 00:29:42;;;;;;;1999.90;999.90;;;17.50;99.90;;;;;;5085123;28;20028;-73
2023/08/26 00:32:10;;;;;;;1999.90;999.90;;;17.60;99.90;;;;;;5082635;28;20028;-73
2023/08/26 00:34:36;;;;;;;1999.90;999.90;;;17.60;99.90;;;;;;5071114;28;20036;-70
2023/08/26 00:37:01;;;;;;;1999.90;999.90;;;17.50;99.90;;;;;;5072265;28;20024;-73
2023/08/26 00:39:27;;;;;;;1999.90;999.90;;;17.50;99.90;;;;;;5088664;28;20077;-73
2023/08/26 00:41:53;;;;;;;1999.90;999.90;;;17.50;99.90;;;;;;5092739;28;20024;-69
2023/08/26 00:44:18;;;;;;;1999.90;999.90;;;17.40;99.90;;;;;;5082654;28;20024;-73
2023/08/26 00:46:45;;;;;;;1999.90;999.90;;;17.40;99.90;;;;;;5072256;28;20021;-73
2023/08/26 00:49:10;;;;;;;1999.90;999.90;;;17.50;99.90;;;;;;5075198;28;20467;-73
2023/08/26 00:51:37;;;;;;;1999.90;999.90;;;17.50;99.90;;;;;;5074701;28;20027;-69
2023/08/26 00:54:07;;;;;;;1999.90;999.90;;;17.40;99.90;;;;;;5076001;28;20028;-70
2023/08/26 00:56:33;;;;;;;1999.90;999.90;;;17.40;99.90;;;;;;5076167;28;20021;-69
2023/08/26 00:58:59;;;;;;;1999.90;999.90;;;17.40;99.90;;;;;;5083508;28;20471;-69
2023/08/26 01:01:25;;;;;;;1999.90;999.90;;;17.40;99.90;;;;;;5090683;28;20031;-73
2023/08/26 01:03:52;;;;;;;1999.90;999.90;;;17.30;99.90;;;;;;5089689;28;20048;-73
2023/08/26 01:06:17;;;;;;;1999.90;999.90;;;17.30;99.90;;;;;;5085081;28;20020;-69
2023/08/26 01:08:43;;;;;;;1999.90;999.90;;;17.30;99.90;;;;;;5094124;28;20424;-73
2023/08/26 01:11:26;;;;;;;1999.90;999.90;;;17.30;99.90;;;;;;5084276;28;20039;-72
2023/08/26 01:14:01;;;;;;;;;;;17.20;99.90;;;;;;5076050;28;20046;-73
2023/08/26 01:16:30;;;;;;;1999.90;999.90;;;17.20;99.90;;;;;;5075570;28;19998;-73
2023/08/26 01:18:56;;;;;;;1999.90;999.90;;;17.10;99.90;;;;;;5075619;28;20028;-69
2023/08/26 01:21:33;;;;;;;1999.90;999.90;;;17.00;99.90;;;;;;5074247;28;20042;-73
2023/08/26 01:23:59;;;;;;;1999.90;999.90;;;17.00;99.90;;;;;;5075286;28;20025;-73
2023/08/26 01:26:24;;;;;;;1999.90;999.90;;;17.00;99.90;;;;;;5075410;28;20387;-73
2023/08/26 01:28:50;;;;;;;1999.90;999.90;;;17.10;99.90;;;;;;5089005;28;20085;-73
2023/08/26 01:31:18;;;;;;;1999.90;999.90;;;17.20;99.90;;;;;;5083346;28;20111;-69
2023/08/26 01:34:32;;;;;;;1999.90;999.90;;;17.30;99.90;;;;;;5093942;28;20028;-69
2023/08/26 01:37:00;;;;;;;1999.90;999.90;;;17.50;99.90;;;;;;5086220;28;20040;-73
2023/08/26 01:39:27;;;;;;;1999.90;999.90;;;17.50;99.90;;;;;;5095620;28;20028;-73
2023/08/26 01:41:54;;;;;;;1999.90;999.90;;;17.60;99.90;;;;;;5095664;28;20486;-69
2023/08/26 01:44:21;;;;;;;1999.90;999.90;;;17.60;99.90;;;;;;5085186;28;20039;-69
2023/08/26 01:46:47;;;;;;;1999.90;999.90;;;17.70;99.90;;;;;;5075051;28;20048;-69
2023/08/26 01:49:14;;;;;;;1999.90;999.90;;;17.70;99.90;;;;;;5074946;28;20027;-72
2023/08/26 01:51:40;;;;;;;1999.90;999.90;;;17.80;99.90;;;;;;5084431;28;20537;-69
2023/08/26 01:54:06;;;;;;;1999.90;999.90;;;17.90;99.90;;;;;;5091680;28;20032;-73
2023/08/26 01:56:32;;;;;;;1999.90;999.90;;;18.00;99.90;;;;;;5095207;28;20043;-69
2023/08/26 01:58:58;;;;;;;1999.90;999.90;;;18.00;99.90;;;;;;5094754;28;20031;-69
2023/08/26 02:01:23;;;;;;;1999.90;999.90;;;18.00;99.90;;;;;;5095251;28;20024;-69
2023/08/26 02:03:49;;;;;;;1999.90;999.90;;;18.10;99.90;;;;;;5085752;28;20055;-73
2023/08/26 02:06:15;;;;;;;1999.90;999.90;;;17.90;99.90;;;;;;5090612;28;20040;-69
2023/08/26 02:08:40;;;;;;;1999.90;999.90;;;17.80;99.90;;;;;;5077076;28;20550;-72
2023/08/26 02:11:06;;;;;;;1999.90;999.90;;;17.60;99.90;;;;;;5084550;28;20081;-69
2023/08/26 02:13:32;;;;;;;1999.90;999.90;;;17.50;99.90;;;;;;5076259;28;20012;-69
2023/08/26 02:15:58;;;;;;;1999.90;999.90;;;17.50;99.90;;;;;;5094820;28;20424;-69
2023/08/26 02:18:24;;;;;;;1999.90;999.90;;;17.50;99.90;;;;;;5094661;28;20070;-73
2023/08/26 02:20:49;;;;;;;1999.90;999.90;;;17.50;99.90;;;;;;5094579;28;20596;-69
2023/08/26 02:23:15;;;;;;;1999.90;999.90;;;17.50;99.90;;;;;;5094471;28;20034;-69
2023/08/26 02:25:42;;;;;;;1999.90;999.90;;;17.50;99.90;;;;;;5094674;28;20483;-69
2023/08/26 02:28:07;;;;;;;1999.90;999.90;;;17.40;99.90;;;;;;5094372;28;20444;-73
2023/08/26 02:30:34;;;;;;;1999.90;999.90;;;17.40;99.90;;;;;;5088162;28;20056;-73
2023/08/26 02:33:00;;;;;;;1999.90;999.90;;;17.40;99.90;;;;;;5086603;28;20012;-69
2023/08/26 02:35:26;;;;;;;1999.90;999.90;;;17.50;99.90;;;;;;5094619;28;20032;-69
2023/08/26 02:37:51;;;;;;;1999.90;999.90;;;17.40;99.90;;;;;;5092379;28;20024;-69
2023/08/26 02:40:18;;;;;;;1999.90;999.90;;;17.40;99.90;;;;;;5092642;28;20021;-73
2023/08/26 02:42:44;;;;;;;1999.90;999.90;;;17.40;99.90;;;;;;5094150;28;20059;-69
2023/08/26 02:45:10;;;;;;;1999.90;999.90;;;17.50;99.90;;;;;;5077129;28;20068;-73
2023/08/26 02:47:35;;;;;;;1999.90;999.90;;;17.50;99.90;;;;;;5074264;28;20024;-73
2023/08/26 02:50:02;;;;;;;1999.90;999.90;;;17.40;99.90;;;;;;5073783;28;20377;-69
2023/08/26 02:52:27;;;;;;;1999.90;999.90;;;17.40;99.90;;;;;;5073800;28;20056;-73
2023/08/26 02:54:53;;;;;;;1999.90;999.90;;;17.40;99.90;;;;;;5072261;28;20062;-72
2023/08/26 02:57:19;;;;;;;1999.90;999.90;;;17.40;99.90;;;;;;5079755;28;20027;-69
2023/08/26 02:59:45;;;;;;;1999.90;999.90;;;17.50;99.90;;;;;;5090911;28;20494;-73
2023/08/26 03:02:11;;;;;;;1999.90;999.90;;;17.50;99.90;;;;;;5089404;28;20024;-69
2023/08/26 03:04:36;;;;;;;1999.90;999.90;;;17.60;99.90;;;;;;5086714;28;20032;-73
2023/08/26 03:07:02;;;;;;;1999.90;999.90;;;17.60;99.90;;;;;;5090369;28;20032;-73
2023/08/26 03:09:29;;;;;;;1999.90;999.90;;;17.70;99.90;;;;;;5081520;28;20016;-69
2023/08/26 03:11:58;;;;;;;1999.90;999.90;;;17.70;99.90;;;;;;5075779;28;20020;-73
2023/08/26 03:14:24;;;;;;;1999.90;999.90;;;17.70;99.90;;;;;;5073179;28;20032;-73
2023/08/26 03:16:51;;;;;;;1999.90;999.90;;;17.70;99.90;;;;;;5076102;28;20087;-73
2023/08/26 03:19:17;;;;;;;1999.90;999.90;;;17.70;99.90;;;;;;5093350;28;20031;-73
2023/08/26 03:21:42;;;;;;;1999.90;999.90;;;17.80;99.90;;;;;;5092822;28;20021;-73
2023/08/26 03:24:09;;;;;;;1999.90;999.90;;;17.70;99.90;;;;;;5093165;28;20020;-70
2023/08/26 03:26:35;;;;;;;1999.90;999.90;;;17.70;99.90;;;;;;5093887;28;20039;-73
2023/08/26 03:29:02;;;;;;;1999.90;999.90;;;17.70;99.90;;;;;;5052323;28;20496;-70
2023/08/26 03:31:28;;;;;;;1999.90;999.90;;;17.70;99.90;;;;;;5079287;28;20040;-70
2023/08/26 03:33:53;;;;;;;1999.90;999.90;;;17.70;99.90;;;;;;5092679;28;20032;-73
2023/08/26 03:36:19;;;;;;;1999.90;999.90;;;17.70;99.90;;;;;;5092091;28;20043;-72
2023/08/26 03:38:44;;;;;;;1999.90;999.90;;;17.60;99.90;;;;;;5085827;28;20380;-72
2023/08/26 03:41:10;;;;;;;1999.90;999.90;;;17.60;99.90;;;;;;5093552;28;20024;-69
2023/08/26 03:43:36;;;;;;;1999.90;999.90;;;17.50;99.90;;;;;;5089137;28;20050;-70
2023/08/26 03:46:03;;;;;;;1999.90;999.90;;;17.50;99.90;;;;;;5072878;28;20040;-73
2023/08/26 03:48:29;;;;;;;1999.90;999.90;;;17.40;99.90;;;;;;5072971;28;20074;-72
2023/08/26 03:50:56;;;;;;;1999.90;999.90;;;17.30;99.90;;;;;;5072917;28;20024;-73
2023/08/26 03:53:22;;;;;;;1999.90;999.90;;;17.30;99.90;;;;;;5072968;28;20125;-69
2023/08/26 03:55:48;;;;;;;1999.90;999.90;;;17.30;99.90;;;;;;5072793;28;20515;-73
2023/08/26 03:58:14;;;;;;;1999.90;999.90;;;17.20;99.90;;;;;;5084685;28;20054;-72
2023/08/26 04:00:40;;;;;;;1999.90;999.90;;;17.20;99.90;;;;;;5089462;28;20214;-73
2023/08/26 04:03:06;;;;;;;1999.90;999.90;;;17.20;99.90;;;;;;5090650;28;20063;-73
2023/08/26 04:05:32;;;;;;;1999.90;999.90;;;17.10;99.90;;;;;;5090103;28;20487;-73
2023/08/26 04:08:01;;;;;;;1999.90;999.90;;;17.10;99.90;;;;;;5088054;28;20020;-70
2023/08/26 04:10:27;;;;;;;1999.90;999.90;;;17.10;99.90;;;;;;5085846;28;20388;-69
2023/08/26 04:12:53;;;;;;;1999.90;999.90;;;17.10;99.90;;;;;;5072639;28;20027;-73
2023/08/26 04:15:18;;;;;;;1999.90;999.90;;;17.20;99.90;;;;;;5072796;28;20074;-70
2023/08/26 04:17:44;;;;;;;1999.90;999.90;;;17.10;99.90;;;;;;5072786;28;20047;-73
2023/08/26 04:20:13;;;;;;;1999.90;999.90;;;17.00;99.90;;;;;;5072283;28;20032;-69
2023/08/26 04:22:39;;;;;;;1999.90;999.90;;;17.00;99.90;;;;;;5080678;28;20027;-69
2023/08/26 04:25:06;;;;;;;1999.90;999.90;;;16.90;99.90;;;;;;5096975;28;20028;-73
2023/08/26 04:27:34;;;;;;;1999.90;999.90;;;16.90;99.90;;;;;;5096855;28;20074;-73
2023/08/26 04:30:00;;;;;;;1999.90;999.90;;;16.90;99.90;;;;;;5090748;28;20034;-73
2023/08/26 04:32:26;;;;;;;1999.90;999.90;;;16.80;99.90;;;;;;5087751;28;20471;-69
2023/08/26 04:34:52;;;;;;;1999.90;999.90;;;16.80;99.90;;;;;;5096705;28;20020;-69
2023/08/26 04:37:20;;;;;;;1999.90;999.90;;;16.70;99.90;;;;;;5096636;28;20085;-69
2023/08/26 04:39:46;;;;;;;1999.90;999.90;;;16.70;99.90;;;;;;5096692;28;20016;-73
2023/08/26 04:42:12;;;;;;;1999.90;999.90;;;16.70;99.90;;;;;;5077148;28;20056;-72
2023/08/26 04:44:38;;;;;;;1999.90;999.90;;;16.70;99.90;;;;;;5090017;28;20487;-73
2023/08/26 04:47:04;;;;;;;1999.90;999.90;;;16.60;99.90;;;;;;5096421;28;20031;-73
2023/08/26 04:49:31;;;;;;;1999.90;999.90;;;16.60;99.90;;;;;;5091510;28;20057;-69
2023/08/26 04:51:57;;;;;;;1999.90;999.90;;;16.60;99.90;;;;;;5094160;28;20016;-72
2023/08/26 04:54:23;;;;;;;1999.90;999.90;;;16.50;99.90;;;;;;5089084;28;20107;-73
2023/08/26 04:56:48;;;;;;;1999.90;999.90;;;16.50;99.90;;;;;;5096558;28;20020;-73
2023/08/26 04:59:14;;;;;;;1999.90;999.90;;;16.40;99.90;;;;;;5077253;28;20028;-69
2023/08/26 05:01:40;;;;;;;1999.90;999.90;;;16.40;99.90;;;;;;5086846;28;20055;-69
2023/08/26 05:04:05;;;;;;;1999.90;999.90;;;16.40;99.90;;;;;;5086498;28;20403;-73
2023/08/26 05:06:31;;;;;;;1999.90;999.90;;;16.30;99.90;;;;;;5086012;28;20432;-73
2023/08/26 05:08:57;;;;;;;1999.90;999.90;;;16.30;99.90;;;;;;5075973;28;20052;-73
2023/08/26 05:11:22;;;;;;;1999.90;999.90;;;16.30;99.90;;;;;;5088858;28;20065;-73
2023/08/26 05:13:48;;;;;;;1999.90;999.90;;;16.30;99.90;;;;;;5085134;28;20025;-70
2023/08/26 05:16:13;;;;;;;1999.90;999.90;;;16.20;99.90;;;;;;5080075;28;20024;-69
2023/08/26 05:18:39;;;;;;;1999.90;999.90;;;16.30;99.90;;;;;;5094488;28;20479;-69
2023/08/26 05:21:05;;;;;;;1999.90;999.90;;;16.30;99.90;;;;;;5095864;28;20020;-69
2023/08/26 05:23:31;;;;;;;1999.90;999.90;;;16.30;99.90;;;;;;5095506;28;20031;-73
2023/08/26 05:25:57;;;;;;;1999.90;999.90;;;16.40;99.90;;;;;;5095798;28;20113;-69
2023/08/26 05:28:23;;;;;;;1999.90;999.90;;;16.40;99.90;;;;;;5095749;28;20495;-73
2023/08/26 05:30:48;;;;;;;1999.90;999.90;;;16.50;99.90;;;;;;5087945;28;20027;-69
2023/08/26 05:33:14;;;;;;;1999.90;999.90;;;16.50;99.90;;;;;;5088901;28;20025;-73
2023/08/26 05:35:40;;;;;;;1999.90;999.90;;;16.50;99.90;;;;;;5095272;28;20028;-73
2023/08/26 05:38:05;;;;;;;1999.90;999.90;;;16.50;99.90;;;;;;5095314;28;20425;-69
2023/08/26 05:40:32;;;;;;;1999.90;999.90;;;16.50;99.90;;;;;;5094470;28;20039;-73
2023/08/26 05:42:58;;;;;;;1999.90;999.90;;;16.40;99.90;;;;;;5095514;28;20052;-73
2023/08/26 05:45:25;;;;;;;1999.90;999.90;;;16.20;99.90;;;;;;5076370;28;20479;-73
2023/08/26 05:47:51;;;;;;;1999.90;999.90;;;16.10;99.90;;;;;;5075146;28;20028;-73
2023/08/26 05:50:17;;;;;;;1999.90;999.90;;;16.00;99.90;;;;;;5074897;28;20036;-69
2023/08/26 05:52:43;;;;;;;1999.90;999.90;;;15.90;99.90;;;;;;5074919;28;20078;-69
2023/08/26 05:55:09;;;;;;;1999.90;999.90;;;15.90;99.90;;;;;;5074883;28;20103;-73
2023/08/26 05:57:36;;;;;;;1999.90;999.90;;;15.90;99.90;;;;;;5075197;28;20025;-73
2023/08/26 06:00:02;;;;;;;1999.90;999.90;;;15.90;99.90;;;;;;5074947;28;20078;-72
2023/08/26 06:02:29;;;;;;;1999.90;999.90;;;15.90;99.90;;;;;;5074712;28;20105;-73
2023/08/26 06:04:54;;;;;;;1999.90;999.90;;;15.90;99.90;;;;;;5084800;28;20036;-69
2023/08/26 06:07:20;;;;;;;1999.90;999.90;;;16.00;99.90;;;;;;5074615;28;20031;-69
2023/08/26 06:09:46;;;;;;;1999.90;999.90;;;16.10;99.90;;;;;;5086251;28;20024;-73
2023/08/26 06:12:11;;;;;;;1999.90;999.90;;;16.10;99.90;;;;;;5075322;28;20071;-73
2023/08/26 06:14:37;;;;;;;1999.90;999.90;;;16.30;99.90;;;;;;5083482;28;20454;-73
2023/08/26 06:17:04;;;;;;;1999.90;999.90;;;16.40;99.90;;;;;;5080779;28;20037;-69
2023/08/26 06:19:29;;;;;;;1999.90;999.90;;;16.60;99.90;;;;;;5089847;28;20073;-69
2023/08/26 06:21:55;;;;;;;1999.90;999.90;;;16.70;99.90;;;;;;5093764;28;20020;-72
2023/08/26 06:24:21;;;;;;;1999.90;999.90;;;16.80;99.90;;;;;;5092078;28;20031;-73
2023/08/26 06:26:46;;;;;;;1999.90;999.90;;;16.80;99.90;;;;;;5093314;28;20444;-73
2023/08/26 06:29:15;;;;;;;1999.90;999.90;;;16.80;99.90;;;;;;5083664;28;20025;-69
2023/08/26 06:31:42;;;;;;;1999.90;999.90;;;16.80;99.90;;;;;;5084883;28;20442;-69
2023/08/26 06:34:07;;;;;;;1999.90;999.90;;;16.90;99.90;;;;;;5074153;28;20025;-69
2023/08/26 06:36:33;;;;;;;1999.90;999.90;;;17.00;99.90;;;;;;5073968;28;20029;-73
2023/08/26 06:38:59;;;;;;;1999.90;999.90;;;17.10;99.90;;;;;;5091274;28;20103;-73
2023/08/26 06:41:25;;;;;;;1999.90;999.90;;;17.20;99.90;;;;;;5084380;28;20115;-73
2023/08/26 06:43:50;;;;;;;1999.90;999.90;;;17.10;99.90;;;;;;5084161;28;20116;-69
2023/08/26 06:46:16;;;;;;;1999.90;999.90;;;17.00;99.90;;;;;;5072753;28;20052;-69
2023/08/26 06:48:42;;;;;;;1999.90;999.90;;;16.90;99.90;;;;;;5076328;28;20410;-70
2023/08/26 06:51:07;;;;;;;1999.90;999.90;;;16.90;99.90;;;;;;5080185;28;20082;-73
2023/08/26 06:53:33;;;;;;;1999.90;999.90;;;16.90;99.90;;;;;;5072492;28;20035;-73
2023/08/26 06:55:58;;;;;;;1999.90;999.90;;;16.90;99.90;;;;;;5073746;28;20398;-69
2023/08/26 06:58:24;;;;;;;1999.90;999.90;;;16.90;99.90;;;;;;5079709;28;20040;-69
2023/08/26 07:00:50;;;;;;;1999.90;999.90;;;16.90;99.90;;;;;;5073812;28;20024;-70
2023/08/26 07:03:16;;;;;;;1999.90;999.90;;;16.80;99.90;;;;;;5090188;28;20123;-73
2023/08/26 07:05:45;;;;;;;1999.90;999.90;;;16.90;99.90;;;;;;5092590;28;20043;-73
2023/08/26 07:08:13;;;;;;;1999.90;999.90;;;16.90;99.90;;;;;;5079592;28;20017;-73
2023/08/26 07:10:39;;;;;;;1999.90;999.90;;;17.00;99.90;;;;;;5086118;28;20425;-69
2023/08/26 07:13:05;;;;;;;1999.90;999.90;;;17.00;99.90;;;;;;5073263;28;20021;-73
2023/08/26 07:15:30;;;;;;;1999.90;999.90;;;17.20;99.90;;;;;;5073332;28;20032;-74
2023/08/26 07:17:56;;;;;;;1999.90;999.90;;;17.30;99.90;;;;;;5088893;28;20020;-70
2023/08/26 07:20:22;;;;;;;1999.90;999.90;;;17.60;99.90;;;;;;5093769;28;20078;-69
2023/08/26 07:22:48;;;;;;;1999.90;999.90;;;17.80;99.90;;;;;;5093345;28;20019;-69
2023/08/26 07:25:14;;;;;;;1999.90;999.90;;;17.80;99.90;;;;;;5092860;28;20544;-69
2023/08/26 07:27:40;;;;;;;1999.90;999.90;;;18.00;99.90;;;;;;5083336;28;20025;-69
2023/08/26 07:30:07;;;;;;;1999.90;999.90;;;18.10;99.90;;;;;;5079880;28;20040;-73
2023/08/26 07:32:32;;;;;;;1999.90;999.90;;;18.10;99.90;;;;;;5084772;28;20493;-68
2023/08/26 07:34:58;;;;;;;1999.90;999.90;;;18.10;99.90;;;;;;5087199;28;20020;-69
2023/08/26 07:37:23;;;;;;;1999.90;999.90;;;18.20;99.90;;;;;;5087458;28;20032;-69
2023/08/26 07:39:49;;;;;;;1999.90;999.90;;;18.40;99.90;;;;;;5087662;28;20029;-69
2023/08/26 07:42:16;;;;;;;1999.90;999.90;;;18.60;99.90;;;;;;5086977;28;20076;-73
2023/08/26 07:44:42;;;;;;;1999.90;999.90;;;18.50;99.90;;;;;;5086180;28;20028;-73
2023/08/26 07:47:07;;;;;;;1999.90;999.90;;;18.40;99.90;;;;;;5086751;28;20016;-73
2023/08/26 07:49:33;;;;;;;1999.90;999.90;;;18.30;99.90;;;;;;5087157;28;20051;-69
2023/08/26 07:51:58;;;;;;;1999.90;999.90;;;18.20;99.90;;;;;;5088560;28;20026;-72
2023/08/26 07:54:24;;;;;;;1999.90;999.90;;;18.00;99.90;;;;;;5087362;28;20367;-72
2023/08/26 07:56:50;;;;;;;1999.90;999.90;;;17.50;99.90;;;;;;5092855;28;20132;-73
2023/08/26 07:59:15;;;;;;;1999.90;999.90;;;17.60;99.90;;;;;;5092958;28;20038;-70
2023/08/26 08:01:41;;;;;;;1999.90;999.90;;;17.70;99.90;;;;;;5092795;28;20036;-70
2023/08/26 08:04:06;;;;;;;1999.90;999.90;;;17.70;99.90;;;;;;5089002;28;20055;-70
2023/08/26 08:06:32;;;;;;;1999.90;999.90;;;17.90;99.90;;;;;;5072907;28;20074;-73
2023/08/26 08:08:58;;;;;;;1999.90;999.90;;;18.10;99.90;;;;;;5089460;28;20074;-69
2023/08/26 08:11:23;;;;;;;1999.90;999.90;;;18.60;99.90;;;;;;5080132;28;20036;-74
2023/08/26 08:13:50;;;;;;;1999.90;999.90;;;20.40;99.90;;;;;;5072063;28;20104;-69
2023/08/26 08:16:15;;;;;;;1999.90;999.90;;;20.60;99.90;;;;;;5092378;28;20077;-74
2023/08/26 08:18:41;;;;;;;1999.90;999.90;;;20.40;99.90;;;;;;5090699;28;20495;-69
2023/08/26 08:21:08;;;;;;;1999.90;999.90;;;20.00;99.90;;;;;;5074141;28;20066;-73
2023/08/26 08:23:35;;;;;;;1999.90;999.90;;;19.90;99.90;;;;;;5084006;28;20024;-70
2023/08/26 08:26:00;;;;;;;1999.90;999.90;;;20.10;99.90;;;;;;5072455;28;20440;-73
2023/08/26 08:28:26;;;;;;;1999.90;999.90;;;20.20;99.90;;;;;;5072526;28;20105;-69
2023/08/26 08:30:52;;;;;;;1999.90;999.90;;;20.40;99.90;;;;;;5081353;28;20077;-74
2023/08/26 08:33:17;;;;;;;1999.90;999.90;;;20.40;99.90;;;;;;5078762;28;20039;-69
2023/08/26 08:35:43;;;;;;;1999.90;999.90;;;20.40;99.90;;;;;;5072146;28;20031;-74
2023/08/26 08:38:09;;;;;;;1999.90;999.90;;;20.80;99.90;;;;;;5072276;28;20013;-74
2023/08/26 08:40:37;;;;;;;1999.90;999.90;;;21.30;99.90;;;;;;5072399;28;20394;-74
2023/08/26 08:43:05;;;;;;;1999.90;999.90;;;21.40;99.90;;;;;;5080766;28;20505;-69
2023/08/26 08:45:31;;;;;;;1999.90;999.90;;;22.30;99.90;;;;;;5072678;28;20040;-74
2023/08/26 08:47:58;;;;;;;1999.90;999.90;;;25.00;99.90;;;;;;5072493;28;20090;-75
2023/08/26 08:50:24;;;;;;;1999.90;999.90;;;28.20;99.90;;;;;;5078757;28;20028;-75
2023/08/26 08:52:54;;;;;;;1999.90;999.90;;;29.90;99.90;;;;;;5090198;28;20032;-71
2023/08/26 08:55:21;;;;;;;1999.90;999.90;;;31.20;99.90;;;;;;5092966;28;20538;-71
2023/08/26 08:57:49;;;;;;;1999.90;999.90;;;29.90;99.90;;;;;;5092644;28;20017;-71
2023/08/26 09:00:17;;;;;;;1999.90;999.90;;;27.60;99.90;;;;;;5092666;28;20020;-71
2023/08/26 09:02:45;;;;;;;1999.90;999.90;;;25.50;99.90;;;;;;5089885;28;20475;-74
2023/08/26 09:05:12;;;;;;;1999.90;999.90;;;25.50;99.90;;;;;;5077554;28;20040;-74
2023/08/26 09:07:39;;;;;;;1999.90;999.90;;;26.10;99.90;;;;;;5073170;28;20104;-70
2023/08/26 09:10:05;;;;;;;1999.90;999.90;;;24.60;99.90;;;;;;5093072;28;20487;-73
2023/08/26 09:12:31;;;;;;;1999.90;999.90;;;23.80;99.90;;;;;;5096308;28;20018;-70
2023/08/26 09:14:57;;;;;;;1999.90;999.90;;;25.80;99.90;;;;;;5055809;28;20411;-75
2023/08/26 09:17:23;;;;;;;1999.90;999.90;;;26.90;99.90;;;;;;5056042;28;20100;-70
2023/08/26 09:19:50;;;;;;;1999.90;999.90;;;27.90;99.90;;;;;;5055646;28;20546;-70
2023/08/26 09:22:18;;;;;;;1999.90;999.90;;;27.00;99.90;;;;;;5060633;28;20016;-70
2023/08/26 09:24:44;;;;;;;1999.90;999.90;;;25.80;99.90;;;;;;5095735;28;20035;-74
2023/08/26 09:27:09;;;;;;;1999.90;999.90;;;27.10;99.90;;;;;;5094147;28;20363;-70
2023/08/26 09:29:37;;;;;;;1999.90;999.90;;;26.70;99.90;;;;;;5093186;28;20017;-74
2023/08/26 09:32:03;;;;;;;1999.90;999.90;;;28.30;99.90;;;;;;5083749;28;20035;-71
2023/08/26 09:34:30;;;;;;;1999.90;999.90;;;29.60;99.90;;;;;;5095470;28;20028;-71
2023/08/26 09:37:02;;;;;;;1999.90;999.90;;;28.90;99.90;;;;;;5095778;28;20035;-74
2023/08/26 09:39:29;;;;;;;1999.90;999.90;;;26.90;99.90;;;;;;5094890;28;20542;-74
2023/08/26 09:41:56;;;;;;;1999.90;999.90;;;26.10;99.90;;;;;;5089923;28;20112;-73
2023/08/26 09:44:21;;;;;;;1999.90;999.90;;;26.90;99.90;;;;;;5091030;28;20054;-71
2023/08/26 09:46:48;;;;;;;1999.90;999.90;;;28.60;99.90;;;;;;5094135;28;20021;-73
2023/08/26 09:49:18;;;;;;;1999.90;999.90;;;27.90;99.90;;;;;;5095199;28;20549;-73
2023/08/26 09:51:52;;;;;;;1999.90;999.90;;;26.80;99.90;;;;;;5095345;28;20012;-70
2023/08/26 09:54:19;;;;;;;1999.90;999.90;;;25.40;99.90;;;;;;5095092;28;20028;-73
2023/08/26 09:56:46;;;;;;;1999.90;999.90;;;24.50;99.90;;;;;;5095195;28;20024;-70
2023/08/26 09:59:12;;;;;;;1999.90;999.90;;;24.10;99.90;;;;;;5094920;28;20032;-73
2023/08/26 10:01:39;;;;;;;1999.90;999.90;;;24.20;99.90;;;;;;5093666;28;20025;-70
2023/08/26 10:04:09;;;;;;;1999.90;999.90;;;24.20;99.90;;;;;;5088130;28;20048;-73
2023/08/26 10:06:41;;;;;;;1999.90;999.90;;;24.40;99.90;;;;;;5095072;28;20095;-70
2023/08/26 10:09:16;;;;;;;1999.90;999.90;;;25.80;99.90;;;;;;5094553;28;20032;-74
2023/08/26 10:11:46;;;;;;;1999.90;999.90;;;27.50;99.90;;;;;;5079759;28;20369;-71
2023/08/26 10:14:14;;;;;;;1999.90;999.90;;;28.60;99.90;;;;;;5074390;28;20036;-71
2023/08/26 10:16:41;;;;;;;1999.90;999.90;;;29.30;99.90;;;;;;5081242;28;20399;-74
2023/08/26 10:19:08;;;;;;;1999.90;999.90;;;29.10;99.90;;;;;;5094657;28;20028;-74
2023/08/26 10:21:35;;;;;;;1999.90;999.90;;;28.70;99.90;;;;;;5094199;28;20020;-74
2023/08/26 10:24:01;;;;;;;1999.90;999.90;;;26.90;99.90;;;;;;5094343;28;20039;-73
2023/08/26 10:26:27;;;;;;;1999.90;999.90;;;26.10;99.90;;;;;;5094636;28;20563;-70
2023/08/26 10:28:57;;;;;;;1999.90;999.90;;;26.40;99.90;;;;;;5094524;28;20026;-74
2023/08/26 10:31:33;;;;;;;1999.90;999.90;;;26.90;99.90;;;;;;5083895;28;20134;-73
2023/08/26 10:34:08;;;;;;;1999.90;999.90;;;26.50;99.90;;;;;;5091997;28;20483;-73
2023/08/26 10:36:41;;;;;;;1999.90;999.90;;;25.90;99.90;;;;;;5093866;28;20032;-71
2023/08/26 10:39:18;;;;;;;1999.90;999.90;;;25.50;99.90;;;;;;5094403;28;20020;-70
2023/08/26 10:42:13;;;;;;;1999.90;999.90;;;25.30;99.90;;;;;;5094714;28;20457;-73
2023/08/26 10:44:41;;;;;;;1999.90;999.90;;;25.30;99.90;;;;;;5081448;28;20055;-73
2023/08/26 10:47:07;;;;;;;1999.90;999.90;;;25.50;99.90;;;;;;5073941;28;20013;-73
2023/08/26 10:49:36;;;;;;;1999.90;999.90;;;25.30;99.90;;;;;;5073939;28;20491;-70
2023/08/26 10:52:08;;;;;;;1999.90;999.90;;;25.10;99.90;;;;;;5073927;28;20550;-74
2023/08/26 10:54:35;;;;;;;1999.90;999.90;;;25.10;99.90;;;;;;5073594;28;20463;-70
2023/08/26 10:57:08;;;;;;;1999.90;999.90;;;25.30;99.90;;;;;;5073874;28;20491;-73
2023/08/26 10:59:36;;;;;;;1999.90;999.90;;;25.40;99.90;;;;;;5074011;28;20020;-73
2023/08/26 11:02:05;;;;;;;1999.90;999.90;;;25.70;99.90;;;;;;5091779;28;20031;-70
2023/08/26 11:04:31;;;;;;;1999.90;999.90;;;25.60;99.90;;;;;;5085658;28;20028;-70
2023/08/26 11:06:57;;;;;;;1999.90;999.90;;;25.70;99.90;;;;;;5087924;28;20467;-73
2023/08/26 11:09:23;;;;;;;1999.90;999.90;;;25.90;99.90;;;;;;5087984;28;20105;-70
2023/08/26 11:11:48;;;;;;;1999.90;999.90;;;25.90;99.90;;;;;;5077539;28;20025;-73
2023/08/26 11:14:14;;;;;;;1999.90;999.90;;;26.30;99.90;;;;;;5087205;28;20402;-73
2023/08/26 11:16:40;;;;;;;1999.90;999.90;;;26.70;99.90;;;;;;5087671;28;20038;-71
2023/08/26 11:19:07;;;;;;;1999.90;999.90;;;26.80;99.90;;;;;;5089567;28;20508;-71
2023/08/26 11:21:37;;;;;;;1999.90;999.90;;;26.60;99.90;;;;;;5093584;28;20020;-73
2023/08/26 11:24:03;;;;;;;1999.90;999.90;;;26.80;99.90;;;;;;5093191;28;20024;-73
2023/08/26 11:26:29;;;;;;;1999.90;999.90;;;27.10;99.90;;;;;;5093561;28;20031;-73
2023/08/26 11:28:55;;;;;;;1999.90;999.90;;;26.80;99.90;;;;;;5093518;28;20020;-71
2023/08/26 11:31:20;;;;;;;1999.90;999.90;;;26.80;99.90;;;;;;5081743;28;20469;-71
2023/08/26 11:33:48;;;;;;;1999.90;999.90;;;26.90;99.90;;;;;;5090107;28;20016;-73
2023/08/26 11:36:14;;;;;;;1999.90;999.90;;;26.30;99.90;;;;;;5089238;28;20444;-73
2023/08/26 11:38:39;;;;;;;1999.90;999.90;;;26.30;99.90;;;;;;5086914;28;20016;-72
2023/08/26 11:41:06;;;;;;;1999.90;999.90;;;25.60;99.90;;;;;;5090580;28;20024;-70
2023/08/26 11:43:34;;;;;;;1999.90;999.90;;;25.50;99.90;;;;;;5089057;28;20016;-71
2023/08/26 11:46:00;;;;;;;1999.90;999.90;;;25.70;99.90;;;;;;5086171;28;20020;-71
2023/08/26 11:48:27;;;;;;;1999.90;999.90;;;25.50;99.90;;;;;;5091182;28;20510;-70
2023/08/26 11:51:00;;;;;;;1999.90;999.90;;;25.00;99.90;;;;;;5093095;28;20077;-73
2023/08/26 11:53:26;;;;;;;1999.90;999.90;;;25.00;99.90;;;;;;5093306;28;20016;-73
2023/08/26 11:55:52;;;;;;;1999.90;999.90;;;25.20;99.90;;;;;;5093176;28;20028;-73